Time;durP1;ratioP1;P1;durP2;ratioP2;P2;SDS_P1;SDS_P2;PMS_P1;PMS_P2;Temp;Humidity;BMP_temperature;BMP_pressure;BME280_temperature;BME280_humidity;BME280_pressure;Samples;Min_cycle;Max_cycle;Signal;HPM_P1;HPM_P2
2023/08/19 00:01:13;;;;;;;28.35;21.75;;;;;;;24.23;100.00;-18677.16;5044600;28;20407;-77
2023/08/19 00:03:39;;;;;;;30.52;21.02;;;;;;;24.14;100.00;-18674.88;5043447;28;20040;-77
2023/08/19 00:06:10;;;;;;;25.02;20.05;;;;;;;24.31;100.00;-18679.34;5060232;28;20479;-78
2023/08/19 00:08:35;;;;;;;28.48;20.55;;;;;;;24.21;100.00;-18676.63;5041977;28;20091;-77
2023/08/19 00:11:02;;;;;;;26.67;20.75;;;;;;;24.19;100.00;-18676.09;5042306;28;20068;-77
2023/08/19 00:13:28;;;;;;;26.00;20.42;;;;;;;24.20;100.00;-18676.50;5042457;28;20076;-77
2023/08/19 00:15:53;;;;;;;24.38;19.10;;;;;;;24.18;100.00;-18675.94;5043147;28;20132;-77
2023/08/19 00:18:19;;;;;;;24.73;18.85;;;;;;;24.31;100.00;-18679.47;5042459;28;20040;-77
2023/08/19 00:20:44;;;;;;;26.88;20.45;;;;;;;24.19;100.00;-18676.09;5042400;28;20044;-77
2023/08/19 00:23:10;;;;;;;24.88;18.77;;;;;;;24.21;100.00;-18676.63;5044473;28;20140;-77
2023/08/19 00:25:35;;;;;;;26.60;19.58;;;;;;;24.25;100.00;-18677.84;5042102;28;20045;-77
2023/08/19 00:28:03;;;;;;;24.60;19.20;;;;;;;24.34;100.00;-18680.16;5044234;28;20045;-77
2023/08/19 00:30:29;;;;;;;23.33;19.48;;;;;;;24.23;100.00;-18677.16;5041833;28;20049;-77
2023/08/19 00:32:55;;;;;;;23.48;19.38;;;;;;;24.30;100.00;-18679.19;5042703;28;20061;-77
2023/08/19 00:35:20;;;;;;;24.45;17.58;;;;;;;24.20;100.00;-18676.34;5043191;28;20047;-77
2023/08/19 00:37:46;;;;;;;21.38;17.20;;;;;;;24.29;100.00;-18678.94;5043286;28;20103;-77
2023/08/19 00:40:17;;;;;;;22.40;18.35;;;;;;;24.33;100.00;-18679.88;5043714;28;20091;-77
2023/08/19 00:42:43;;;;;;;22.08;18.33;;;;;;;24.25;100.00;-18677.72;5042229;28;20052;-77
2023/08/19 00:45:09;;;;;;;22.40;16.85;;;;;;;24.23;100.00;-18677.16;5044217;28;20079;-77
2023/08/19 00:47:36;;;;;;;23.50;17.10;;;;;;;24.24;100.00;-18677.56;5048141;28;20036;-77
2023/08/19 00:50:05;;;;;;;21.15;16.77;;;;;;;24.36;100.00;-18680.69;5044694;28;20047;-77
2023/08/19 00:52:30;;;;;;;24.13;17.10;;;;;;;24.31;100.00;-18679.47;5042792;28;20041;-77
2023/08/19 00:54:56;;;;;;;22.48;17.95;;;;;;;24.29;100.00;-18678.78;5043616;28;20056;-77
2023/08/19 00:57:22;;;;;;;23.38;18.17;;;;;;;24.42;100.00;-18682.31;5044962;28;20404;-77
2023/08/19 00:59:50;;;;;;;25.77;18.85;;;;;;;24.49;100.00;-18684.22;5044004;28;20044;-77
2023/08/19 01:02:16;;;;;;;20.95;17.73;;;;;;;24.48;100.00;-18683.81;5047553;28;20048;-77
2023/08/19 01:04:41;;;;;;;22.42;16.73;;;;;;;24.48;100.00;-18683.94;5044504;28;20420;-77
2023/08/19 01:07:24;;;;;;;21.30;16.33;;;;;;;24.64;100.00;-18688.00;5047118;28;20496;-77
2023/08/19 01:10:03;;;;;;;22.08;16.80;;;;;;;24.64;100.00;-18688.00;5046897;28;20041;-77
2023/08/19 01:12:55;;;;;;;20.80;15.93;;;;;;;24.75;100.00;-18691.13;5046548;28;20037;-77
2023/08/19 01:15:25;;;;;;;21.50;15.23;;;;;;;24.75;100.00;-18691.00;5046026;28;20045;-77
2023/08/19 01:17:52;;;;;;;18.80;14.57;;;;;;;24.70;100.00;-18689.63;5046666;28;20060;-77
2023/08/19 01:20:19;;;;;;;20.08;15.90;;;;;;;24.88;100.00;-18694.50;5045942;28;20044;-77
2023/08/19 01:23:00;;;;;;;19.23;14.35;;;;;;;24.93;100.00;-18695.88;5039203;28;20052;-77
2023/08/19 01:25:26;;;;;;;17.85;14.73;;;;;;;24.83;100.00;-18693.16;5042317;28;20080;-76
2023/08/19 01:27:51;;;;;;;18.73;14.43;;;;;;;25.01;100.00;-18697.75;5047076;28;20064;-76
2023/08/19 01:30:17;;;;;;;17.23;14.00;;;;;;;24.90;100.00;-18694.91;5047937;28;20076;-76
2023/08/19 01:32:44;;;;;;;19.30;14.52;;;;;;;24.74;100.00;-18690.72;5045297;28;20036;-76
2023/08/19 01:35:12;;;;;;;16.63;13.77;;;;;;;24.68;100.00;-18689.09;5045668;28;20053;-76
2023/08/19 01:37:52;;;;;;;24.05;15.48;;;;;;;24.64;100.00;-18688.00;5047201;28;20045;-77
2023/08/19 01:40:20;;;;;;;19.17;15.05;;;;;;;24.51;100.00;-18684.75;5046798;28;20044;-77
2023/08/19 01:42:46;;;;;;;19.27;15.47;;;;;;;24.52;100.00;-18685.03;5031916;28;20045;-77
2023/08/19 01:45:12;;;;;;;20.60;15.50;;;;;;;24.16;100.00;-18675.28;5045084;28;20566;-77
2023/08/19 01:47:39;;;;;;;20.92;14.30;;;;;;;24.12;100.00;-18674.31;5046869;28;20049;-77
2023/08/19 01:50:07;;;;;;;18.35;14.88;;;;;;;24.08;100.00;-18673.25;5052815;28;20040;-76
2023/08/19 01:52:33;;;;;;;19.27;14.98;;;;;;;24.00;100.00;-18671.06;5065470;28;20045;-78
2023/08/19 01:54:59;;;;;;;19.88;15.90;;;;;;;23.98;100.00;-18670.66;5044706;28;20550;-78
2023/08/19 01:57:26;;;;;;;18.85;16.15;;;;;;;23.96;100.00;-18670.00;5062840;28;20044;-77
2023/08/19 01:59:52;;;;;;;22.23;15.77;;;;;;;23.90;100.00;-18668.38;5046147;28;20036;-76
2023/08/19 02:02:17;;;;;;;21.83;16.27;;;;;;;24.05;100.00;-18672.56;5045948;28;20041;-77
2023/08/19 02:04:43;;;;;;;21.95;16.17;;;;;;;24.02;100.00;-18671.63;5043886;28;20071;-76
2023/08/19 02:07:08;;;;;;;20.90;16.30;;;;;;;24.07;100.00;-18672.97;5046375;28;20072;-77
2023/08/19 02:09:33;;;;;;;22.95;16.80;;;;;;;24.03;100.00;-18672.03;5045874;28;20169;-76
2023/08/19 02:12:00;;;;;;;22.50;16.85;;;;;;;23.92;100.00;-18669.03;5042629;28;20120;-77
2023/08/19 02:14:25;;;;;;;25.75;18.60;;;;;;;23.98;100.00;-18670.66;5045230;28;20450;-76
2023/08/19 02:16:51;;;;;;;23.10;17.83;;;;;;;24.08;100.00;-18673.38;5045406;28;20029;-77
2023/08/19 02:19:16;;;;;;;21.73;17.30;;;;;;;24.19;100.00;-18676.09;5047065;28;20519;-76
2023/08/19 02:21:41;;;;;;;25.50;17.42;;;;;;;24.31;100.00;-18679.47;5045893;28;20106;-77
2023/08/19 02:24:07;;;;;;;23.35;17.38;;;;;;;24.40;100.00;-18681.78;5063029;28;20099;-76
2023/08/19 02:26:32;;;;;;;21.05;16.15;;;;;;;24.24;100.00;-18677.44;5045171;28;20051;-77
2023/08/19 02:28:58;;;;;;;20.85;16.70;;;;;;;24.07;100.00;-18673.09;5046230;28;20047;-77
2023/08/19 02:31:23;;;;;;;21.08;16.30;;;;;;;24.13;100.00;-18674.47;5046368;28;20047;-77
2023/08/19 02:33:48;;;;;;;18.15;15.13;;;;;;;24.06;100.00;-18672.84;5044721;28;20593;-76
2023/08/19 02:36:14;;;;;;;19.23;15.70;;;;;;;24.12;100.00;-18674.19;5044773;28;20048;-77
2023/08/19 02:38:39;;;;;;;19.08;15.25;;;;;;;24.14;100.00;-18674.72;5056153;28;20512;-78
2023/08/19 02:41:04;;;;;;;19.02;15.60;;;;;;;24.29;100.00;-18678.78;5042455;28;20045;-77
2023/08/19 02:43:30;;;;;;;17.60;13.70;;;;;;;23.98;100.00;-18670.66;5046137;28;20051;-77
2023/08/19 02:45:57;;;;;;;18.92;14.38;;;;;;;24.07;100.00;-18673.09;5046288;28;20102;-76
2023/08/19 02:48:22;;;;;;;20.15;14.52;;;;;;;23.99;100.00;-18670.94;5047105;28;20044;-75
2023/08/19 02:50:47;;;;;;;20.02;14.68;;;;;;;23.98;100.00;-18670.66;5051848;28;20069;-76
2023/08/19 02:53:13;;;;;;;18.33;14.68;;;;;;;23.97;100.00;-18670.25;5049703;28;20078;-76
2023/08/19 02:55:41;;;;;;;18.05;14.00;;;;;;;24.05;100.00;-18672.44;5037945;28;20037;-77
2023/08/19 02:58:07;;;;;;;17.13;13.82;;;;;;;24.14;100.00;-18674.72;5064631;28;20066;-76
2023/08/19 03:00:36;;;;;;;17.92;13.65;;;;;;;24.16;100.00;-18675.28;5045747;28;20040;-77
2023/08/19 03:03:01;;;;;;;18.40;13.07;;;;;;;24.29;100.00;-18678.78;5045900;28;20128;-77
2023/08/19 03:05:27;;;;;;;20.48;12.88;;;;;;;24.27;100.00;-18678.25;5045403;28;20120;-76
2023/08/19 03:07:52;;;;;;;15.85;12.85;;;;;;;24.24;100.00;-18677.44;5045007;28;20037;-77
2023/08/19 03:10:17;;;;;;;19.17;12.85;;;;;;;24.19;100.00;-18676.09;5060127;28;20075;-77
2023/08/19 03:12:43;;;;;;;17.13;11.90;;;;;;;24.23;100.00;-18677.31;5043259;28;20049;-76
2023/08/19 03:15:08;;;;;;;17.73;12.68;;;;;;;24.23;100.00;-18677.16;5045215;28;20527;-76
2023/08/19 03:17:33;;;;;;;15.77;12.57;;;;;;;24.25;100.00;-18677.84;5045431;28;20136;-78
2023/08/19 03:19:59;;;;;;;15.52;11.95;;;;;;;24.26;100.00;-18678.13;5044905;28;20044;-76
2023/08/19 03:22:24;;;;;;;15.35;11.60;;;;;;;24.27;100.00;-18678.25;5049022;28;20047;-76
2023/08/19 03:24:49;;;;;;;15.15;12.05;;;;;;;24.27;100.00;-18678.25;5060090;28;20206;-77
2023/08/19 03:27:15;;;;;;;16.63;12.48;;;;;;;24.17;100.00;-18675.53;5045563;28;20095;-77
2023/08/19 03:29:40;;;;;;;16.92;11.27;;;;;;;24.20;100.00;-18676.34;5043987;28;20053;-75
2023/08/19 03:32:05;;;;;;;15.45;11.88;;;;;;;24.07;100.00;-18673.09;5045732;28;20045;-76
2023/08/19 03:34:31;;;;;;;15.88;11.60;;;;;;;23.99;100.00;-18670.94;5044517;28;20102;-78
2023/08/19 03:36:56;;;;;;;15.43;12.20;;;;;;;24.08;100.00;-18673.38;5045674;28;20045;-77
2023/08/19 03:39:22;;;;;;;16.58;12.02;;;;;;;24.07;100.00;-18672.97;5046398;28;20045;-77
2023/08/19 03:41:47;;;;;;;15.88;12.45;;;;;;;23.91;100.00;-18668.78;5044811;28;20033;-77
2023/08/19 03:44:12;;;;;;;15.00;11.57;;;;;;;23.97;100.00;-18670.41;5044406;28;20136;-77
2023/08/19 03:46:38;;;;;;;17.65;12.10;;;;;;;24.07;100.00;-18673.09;5044767;28;20122;-76
2023/08/19 03:49:04;;;;;;;15.60;11.07;;;;;;;24.03;100.00;-18671.88;5045766;28;20045;-77
2023/08/19 03:51:30;;;;;;;17.48;12.07;;;;;;;24.03;100.00;-18672.03;5043152;28;20116;-77
2023/08/19 03:53:55;;;;;;;19.63;12.82;;;;;;;24.15;100.00;-18675.00;5044259;28;20085;-77
2023/08/19 03:56:21;;;;;;;16.55;12.00;;;;;;;24.03;100.00;-18672.03;5045123;28;20071;-77
2023/08/19 03:58:46;;;;;;;15.73;11.50;;;;;;;24.15;100.00;-18675.00;5044848;28;20045;-77
2023/08/19 04:01:12;;;;;;;18.13;12.40;;;;;;;24.19;100.00;-18676.09;5036907;28;20041;-75
2023/08/19 04:03:37;;;;;;;16.17;11.27;;;;;;;24.16;100.00;-18675.28;5043473;28;20075;-76
2023/08/19 04:06:03;;;;;;;15.75;10.50;;;;;;;24.23;100.00;-18677.31;5058504;28;20052;-76
2023/08/19 04:08:29;;;;;;;18.73;10.80;;;;;;;24.17;100.00;-18675.53;5042938;28;20043;-76
2023/08/19 04:10:55;;;;;;;15.35;11.50;;;;;;;24.14;100.00;-18674.88;5043398;28;20120;-77
2023/08/19 04:13:20;;;;;;;19.35;12.10;;;;;;;24.19;100.00;-18676.09;5041544;28;20033;-75
2023/08/19 04:15:46;;;;;;;16.77;11.18;;;;;;;24.06;100.00;-18672.84;5042145;28;20528;-77
2023/08/19 04:18:11;;;;;;;16.45;11.38;;;;;;;24.13;100.00;-18674.59;5062332;28;20060;-77
2023/08/19 04:20:39;;;;;;;16.42;11.48;;;;;;;24.25;100.00;-18677.84;5048453;28;20045;-76
2023/08/19 04:23:05;;;;;;;13.63;10.25;;;;;;;24.13;100.00;-18674.59;5045112;28;20041;-77
2023/08/19 04:25:31;;;;;;;13.32;9.63;;;;;;;24.08;100.00;-18673.25;5043688;28;20102;-76
2023/08/19 04:27:56;;;;;;;14.60;9.23;;;;;;;24.18;100.00;-18675.81;5043091;28;20037;-77
2023/08/19 04:30:22;;;;;;;15.95;10.63;;;;;;;24.25;100.00;-18677.72;5043537;28;20049;-77
2023/08/19 04:32:47;;;;;;;13.23;10.43;;;;;;;24.38;100.00;-18681.22;5037597;28;20038;-77
2023/08/19 04:35:13;;;;;;;13.95;10.05;;;;;;;24.37;100.00;-18680.97;5038699;28;20110;-76
2023/08/19 04:37:38;;;;;;;14.88;9.98;;;;;;;24.53;100.00;-18685.16;5042824;28;20060;-75
2023/08/19 04:40:09;;;;;;;14.77;9.60;;;;;;;24.47;100.00;-18683.53;5045282;28;20040;-78
2023/08/19 04:42:37;;;;;;;12.60;9.20;;;;;;;24.34;100.00;-18680.16;5042095;28;20044;-77
2023/08/19 04:45:05;;;;;;;12.30;9.60;;;;;;;24.50;100.00;-18684.50;5043236;28;20534;-77
2023/08/19 04:47:32;;;;;;;14.55;9.50;;;;;;;24.47;100.00;-18683.53;5045515;28;20287;-76
2023/08/19 04:49:57;;;;;;;13.05;9.20;;;;;;;24.41;100.00;-18681.91;5045012;28;20064;-77
2023/08/19 04:52:22;;;;;;;11.77;9.00;;;;;;;24.61;100.00;-18687.19;5044504;28;20041;-77
2023/08/19 04:54:48;;;;;;;15.85;9.13;;;;;;;24.56;100.00;-18685.84;5041519;28;20076;-77
2023/08/19 04:57:16;;;;;;;11.80;9.10;;;;;;;24.57;100.00;-18686.25;5044903;28;20049;-76
2023/08/19 04:59:42;;;;;;;13.85;9.07;;;;;;;24.60;100.00;-18686.94;5039267;28;20056;-77
2023/08/19 05:02:07;;;;;;;11.30;7.95;;;;;;;24.64;100.00;-18688.00;5043371;28;20044;-77
2023/08/19 05:04:33;;;;;;;12.07;8.48;;;;;;;24.60;100.00;-18686.94;5040914;28;20130;-76
2023/08/19 05:06:59;;;;;;;14.00;8.82;;;;;;;24.72;100.00;-18690.31;5042904;28;20755;-77
2023/08/19 05:09:24;;;;;;;10.05;7.47;;;;;;;24.77;100.00;-18691.53;5043635;28;20068;-77
2023/08/19 05:11:49;;;;;;;11.68;8.40;;;;;;;24.72;100.00;-18690.19;5043399;28;20049;-77
2023/08/19 05:14:15;;;;;;;9.30;7.35;;;;;;;24.73;100.00;-18690.44;5059599;28;20071;-78
2023/08/19 05:16:40;;;;;;;11.02;7.93;;;;;;;24.75;100.00;-18691.00;5056411;28;20041;-77
2023/08/19 05:19:17;;;;;;;13.07;7.93;;;;;;;24.83;100.00;-18693.16;5062796;28;20408;-77
2023/08/19 05:21:43;;;;;;;11.13;7.53;;;;;;;24.78;100.00;-18691.81;5061204;28;20091;-77
2023/08/19 05:24:10;;;;;;;9.02;7.53;;;;;;;24.80;100.00;-18692.34;5046731;28;20422;-76
2023/08/19 05:26:35;;;;;;;16.17;7.47;;;;;;;24.76;100.00;-18691.25;5045927;28;20497;-78
2023/08/19 05:29:01;;;;;;;11.63;7.13;;;;;;;24.82;100.00;-18692.88;5046537;28;20048;-77
2023/08/19 05:31:27;;;;;;;12.02;6.75;;;;;;;24.82;100.00;-18692.88;5037753;28;20505;-76
2023/08/19 05:33:53;;;;;;;9.98;6.85;;;;;;;24.83;100.00;-18693.16;5046786;28;20044;-77
2023/08/19 05:36:18;;;;;;;9.30;6.45;;;;;;;24.91;100.00;-18695.31;5045256;28;20095;-77
2023/08/19 05:38:43;;;;;;;8.23;6.60;;;;;;;24.89;100.00;-18694.78;5045296;28;20065;-75
2023/08/19 05:41:09;;;;;;;10.48;6.75;;;;;;;25.02;100.00;-18698.03;5047143;28;20079;-77
2023/08/19 05:43:34;;;;;;;8.73;6.90;;;;;;;25.13;100.00;-18701.00;5047564;28;20049;-77
2023/08/19 05:46:03;;;;;;;10.02;6.72;;;;;;;25.31;100.00;-18705.88;5045705;28;20072;-77
2023/08/19 05:48:29;;;;;;;13.32;7.28;;;;;;;25.30;100.00;-18705.63;5045358;28;20044;-77
2023/08/19 05:50:54;;;;;;;8.82;6.53;;;;;;;25.28;100.00;-18704.94;5049391;28;20743;-76
2023/08/19 05:53:19;;;;;;;10.35;6.45;;;;;;;25.36;100.00;-18707.25;5038395;28;20064;-77
2023/08/19 05:55:45;;;;;;;11.55;6.20;;;;;;;25.39;100.00;-18708.06;5042416;28;20064;-77
2023/08/19 05:58:10;;;;;;;9.43;6.18;;;;;;;25.31;100.00;-18705.88;5039945;28;20415;-76
2023/08/19 06:00:35;;;;;;;7.90;5.82;;;;;;;25.46;100.00;-18709.69;5047611;28;20044;-76
2023/08/19 06:03:01;;;;;;;6.78;5.38;;;;;;;25.44;100.00;-18709.41;5046422;28;20048;-76
2023/08/19 06:05:26;;;;;;;9.27;6.15;;;;;;;25.39;100.00;-18707.91;5046409;28;20041;-76
2023/08/19 06:07:51;;;;;;;8.32;6.13;;;;;;;25.37;100.00;-18707.50;5038523;28;20033;-76
2023/08/19 06:10:18;;;;;;;7.72;5.60;;;;;;;25.38;100.00;-18707.78;5034081;28;20072;-77
2023/08/19 06:12:43;;;;;;;10.65;5.75;;;;;;;25.40;100.00;-18708.31;5039900;28;20515;-77
2023/08/19 06:15:09;;;;;;;9.05;6.68;;;;;;;25.46;100.00;-18709.69;5064099;28;20040;-78
2023/08/19 06:17:34;;;;;;;9.45;6.65;;;;;;;25.46;100.00;-18709.81;5065014;28;20462;-76
2023/08/19 06:20:00;;;;;;;7.95;5.88;;;;;;;25.52;100.00;-18711.44;5050842;28;20037;-77
2023/08/19 06:22:25;;;;;;;8.85;6.28;;;;;;;25.62;100.00;-18714.00;5049644;28;20115;-77
2023/08/19 06:24:51;;;;;;;11.50;6.60;;;;;;;25.76;100.00;-18717.78;5048674;28;20037;-76
2023/08/19 06:27:16;;;;;;;9.52;6.45;;;;;;;25.56;100.00;-18712.53;5045804;28;20052;-76
2023/08/19 06:29:41;;;;;;;10.13;5.90;;;;;;;25.55;100.00;-18712.09;5048428;28;20334;-77
2023/08/19 06:32:07;;;;;;;8.68;5.43;;;;;;;25.82;100.00;-18719.41;5047284;28;20041;-75
2023/08/19 06:34:33;;;;;;;7.85;5.90;;;;;;;26.33;100.00;-18732.94;5047232;28;20120;-76
2023/08/19 06:37:00;;;;;;;9.00;5.53;;;;;;;26.11;100.00;-18727.00;5047982;28;20045;-77
2023/08/19 06:39:27;;;;;;;9.18;5.93;;;;;;;25.91;100.00;-18721.59;5048655;28;20464;-76
2023/08/19 06:42:03;;;;;;;9.27;6.10;;;;;;;25.71;100.00;-18716.31;5049226;28;20044;-76
2023/08/19 06:44:30;;;;;;;7.38;6.03;;;;;;;25.83;100.00;-18719.56;5045145;28;20041;-77
2023/08/19 06:46:57;;;;;;;8.55;6.47;;;;;;;25.85;100.00;-18720.22;5041866;28;20041;-77
2023/08/19 06:49:23;;;;;;;7.75;5.82;;;;;;;26.04;100.00;-18725.09;5047332;28;20041;-77
2023/08/19 06:51:49;;;;;;;11.88;6.57;;;;;;;26.07;100.00;-18725.91;5050651;28;20147;-77
2023/08/19 06:54:15;;;;;;;10.05;5.90;;;;;;;25.94;100.00;-18722.41;5049596;28;20408;-77
2023/08/19 06:57:03;;;;;;;9.00;6.00;;;;;;;26.00;100.00;-18724.16;5048143;28;20041;-78
2023/08/19 06:59:35;;;;;;;6.88;5.30;;;;;;;26.15;100.00;-18728.06;5064332;28;20052;-77
2023/08/19 07:02:04;;;;;;;7.97;5.75;;;;;;;26.11;100.00;-18727.13;5045738;28;20041;-77
2023/08/19 07:04:31;;;;;;;6.60;5.35;;;;;;;26.30;100.00;-18732.13;5047227;28;20033;-77
2023/08/19 07:06:57;;;;;;;8.63;5.88;;;;;;;26.26;100.00;-18730.91;5056495;28;20128;-77
2023/08/19 07:09:23;;;;;;;8.75;6.40;;;;;;;26.24;100.00;-18730.50;5045322;28;20037;-77
2023/08/19 07:11:56;;;;;;;9.50;5.18;;;;;;;26.30;100.00;-18732.13;5046160;28;20083;-77
2023/08/19 07:14:26;;;;;;;7.88;5.55;;;;;;;26.32;100.00;-18732.66;5048592;28;20063;-77
2023/08/19 07:16:54;;;;;;;7.10;5.38;;;;;;;26.38;100.00;-18734.03;5046581;28;20037;-77
2023/08/19 07:19:30;;;;;;;6.90;4.87;;;;;;;26.41;100.00;-18734.97;5042740;28;20047;-77
2023/08/19 07:22:00;;;;;;;10.68;5.22;;;;;;;26.55;100.00;-18738.75;5033886;28;20779;-77
2023/08/19 07:24:25;;;;;;;8.63;5.57;;;;;;;26.52;100.00;-18737.81;5044466;28;20804;-77
2023/08/19 07:26:51;;;;;;;8.20;5.05;;;;;;;26.45;100.00;-18735.91;5061181;28;20041;-77
2023/08/19 07:29:17;;;;;;;9.02;5.47;;;;;;;26.38;100.00;-18734.03;5048484;28;20069;-77
2023/08/19 07:31:43;;;;;;;9.40;5.07;;;;;;;26.42;100.00;-18735.09;5047629;28;20104;-77
2023/08/19 07:34:08;;;;;;;7.50;5.22;;;;;;;26.26;100.00;-18730.91;5047592;28;20037;-77
2023/08/19 07:36:34;;;;;;;8.80;6.05;;;;;;;26.29;100.00;-18731.72;5046928;28;20033;-77
2023/08/19 07:39:00;;;;;;;9.45;5.32;;;;;;;26.27;100.00;-18731.31;5045361;28;20052;-77
2023/08/19 07:41:25;;;;;;;9.43;5.28;;;;;;;26.32;100.00;-18732.66;5043010;28;20053;-77
2023/08/19 07:43:51;;;;;;;8.20;5.45;;;;;;;26.34;100.00;-18733.22;5044856;28;20044;-77
2023/08/19 07:46:17;;;;;;;9.90;6.10;;;;;;;26.29;100.00;-18731.84;5048639;28;20071;-77
2023/08/19 07:48:44;;;;;;;8.15;5.07;;;;;;;26.49;100.00;-18737.13;5044727;28;20148;-77
2023/08/19 07:51:10;;;;;;;7.45;5.70;;;;;;;26.52;100.00;-18737.81;5041705;28;20041;-78
2023/08/19 07:53:35;;;;;;;9.15;4.93;;;;;;;26.52;100.00;-18737.94;5048424;28;20037;-77
2023/08/19 07:56:04;;;;;;;8.15;5.22;;;;;;;26.65;100.00;-18741.31;5038988;28;20040;-77
2023/08/19 07:58:29;;;;;;;9.25;4.95;;;;;;;26.69;100.00;-18742.41;5027776;28;20128;-76
2023/08/19 08:00:54;;;;;;;8.13;4.55;;;;;;;26.62;100.00;-18740.50;5041788;28;20716;-76
2023/08/19 08:03:26;;;;;;;7.15;4.50;;;;;;;26.71;100.00;-18742.94;5018915;27;20820;-76
2023/08/19 08:05:52;;;;;;;6.97;4.35;;;;;;;26.77;100.00;-18744.56;4983123;28;20047;-76
2023/08/19 08:08:17;;;;;;;7.47;5.03;;;;;;;26.80;100.00;-18745.09;4984447;28;20121;-77
2023/08/19 08:10:42;;;;;;;8.20;4.88;;;;;;;26.84;100.00;-18746.19;4981980;28;20042;-77
2023/08/19 08:13:08;;;;;;;7.53;4.50;;;;;;;26.91;100.00;-18748.09;4998527;28;20053;-76
2023/08/19 08:15:33;;;;;;;9.10;4.10;;;;;;;26.96;100.00;-18749.44;5013791;28;20192;-77
2023/08/19 08:17:59;;;;;;;7.38;4.10;;;;;;;27.00;100.00;-18750.50;5011867;28;20038;-77
2023/08/19 08:20:24;;;;;;;8.88;4.22;;;;;;;27.05;100.00;-18751.72;5024658;28;20088;-77
2023/08/19 08:22:49;;;;;;;7.78;4.22;;;;;;;27.14;100.00;-18754.28;5034305;28;20033;-77
2023/08/19 08:25:15;;;;;;;6.55;4.40;;;;;;;27.20;100.00;-18755.78;5029654;28;20050;-78
2023/08/19 08:27:40;;;;;;;7.20;4.65;;;;;;;27.40;100.00;-18761.06;5031302;28;20052;-77
2023/08/19 08:30:06;;;;;;;6.15;3.75;;;;;;;27.57;100.00;-18765.50;5029304;28;20116;-77
2023/08/19 08:32:32;;;;;;;8.23;4.35;;;;;;;27.65;100.00;-18767.66;5031262;28;20049;-77
2023/08/19 08:34:57;;;;;;;6.82;3.78;;;;;;;27.60;100.00;-18766.44;5013937;28;20068;-77
2023/08/19 08:37:22;;;;;;;5.22;3.72;;;;;;;27.87;100.00;-18773.47;5017634;28;20065;-77
2023/08/19 08:39:48;;;;;;;5.95;4.15;;;;;;;27.98;100.00;-18776.31;5016103;28;20612;-77
2023/08/19 08:42:15;;;;;;;8.77;3.63;;;;;;;28.01;100.00;-18777.25;5019795;28;20038;-77
2023/08/19 08:44:44;;;;;;;6.68;3.90;;;;;;;28.11;100.00;-18779.94;5017616;28;20069;-77
2023/08/19 08:47:11;;;;;;;7.07;3.72;;;;;;;28.20;100.00;-18782.09;5007500;28;20038;-77
2023/08/19 08:49:37;;;;;;;6.68;3.80;;;;;;;28.34;100.00;-18785.88;5019075;28;20041;-77
2023/08/19 08:52:03;;;;;;;5.50;3.67;;;;;;;28.41;100.00;-18787.75;5011113;28;20058;-77
2023/08/19 08:54:32;;;;;;;8.38;4.13;;;;;;;28.32;100.00;-18785.34;5011071;28;20042;-78
2023/08/19 08:56:59;;;;;;;6.00;3.80;;;;;;;28.29;100.00;-18784.53;5014621;28;20536;-77
2023/08/19 08:59:24;;;;;;;6.93;3.95;;;;;;;28.41;100.00;-18787.75;5018719;28;20099;-77
2023/08/19 09:01:51;;;;;;;7.53;4.80;;;;;;;28.45;100.00;-18788.84;5010369;28;20042;-78
2023/08/19 09:04:17;;;;;;;9.23;4.53;;;;;;;28.93;100.00;-18801.53;5014341;28;20441;-77
2023/08/19 09:06:46;;;;;;;7.28;4.03;;;;;;;29.19;100.00;-18808.25;5021632;28;20181;-77
2023/08/19 09:09:12;;;;;;;7.55;4.20;;;;;;;28.94;100.00;-18801.78;5022885;28;20038;-77
2023/08/19 09:11:45;;;;;;;7.32;4.15;;;;;;;28.49;100.00;-18789.94;5021503;28;20038;-77
2023/08/19 09:14:32;;;;;;;7.68;4.10;;;;;;;28.41;100.00;-18787.75;5000865;28;20042;-78
2023/08/19 09:16:57;;;;;;;8.88;4.50;;;;;;;28.55;100.00;-18791.53;4994499;28;20034;-77
2023/08/19 09:19:23;;;;;;;7.88;4.63;;;;;;;28.78;100.00;-18797.47;5005948;28;20060;-77
2023/08/19 09:21:49;;;;;;;9.02;4.88;;;;;;;28.92;100.00;-18801.25;5005045;28;20417;-78
2023/08/19 09:24:17;;;;;;;8.75;4.40;;;;;;;29.07;100.00;-18805.16;5000485;28;20046;-77
2023/08/19 09:26:45;;;;;;;7.25;4.32;;;;;;;29.21;100.00;-18808.94;5007853;28;20030;-77
2023/08/19 09:29:11;;;;;;;7.07;4.40;;;;;;;29.44;100.00;-18815.00;4996766;28;20034;-77
2023/08/19 09:31:40;;;;;;;6.88;4.63;;;;;;;29.45;100.00;-18815.25;5003326;28;20436;-77
2023/08/19 09:34:05;;;;;;;;;;;;;;;29.46;100.00;-18815.53;5004394;28;20033;-77
2023/08/19 09:36:31;;;;;;;9.55;5.13;;;;;;;29.79;100.00;-18824.16;5011793;28;20367;-78
2023/08/19 09:38:58;;;;;;;10.30;5.15;;;;;;;29.79;100.00;-18824.16;4998435;28;20673;-77
2023/08/19 09:41:28;;;;;;;7.38;4.03;;;;;;;29.99;100.00;-18829.41;4997321;28;20045;-77
2023/08/19 09:43:54;;;;;;;6.75;4.22;;;;;;;29.70;100.00;-18821.72;4997442;28;20037;-78
2023/08/19 09:46:19;;;;;;;9.45;4.85;;;;;;;29.70;100.00;-18821.59;4999938;28;20048;-77
2023/08/19 09:48:53;;;;;;;7.80;4.90;;;;;;;29.81;100.00;-18824.69;5009219;28;20034;-77
2023/08/19 09:51:26;;;;;;;7.07;4.13;;;;;;;30.08;100.00;-18831.69;5001431;28;20042;-77
2023/08/19 09:53:52;;;;;;;11.68;5.07;;;;;;;30.10;100.00;-18832.38;5001518;28;20041;-77
2023/08/19 09:56:27;;;;;;;7.68;4.57;;;;;;;30.14;100.00;-18833.31;4993281;28;20057;-77
2023/08/19 09:58:54;;;;;;;9.27;4.90;;;;;;;30.31;100.00;-18837.88;5001193;28;20042;-77
2023/08/19 10:01:25;;;;;;;8.20;5.28;;;;;;;30.42;100.00;-18840.72;5007418;28;20054;-77
2023/08/19 10:03:51;;;;;;;8.73;5.07;;;;;;;30.44;100.00;-18841.25;4994665;28;20049;-77
2023/08/19 10:06:26;;;;;;;8.48;4.97;;;;;;;30.52;100.00;-18843.41;4992662;28;20129;-77
2023/08/19 10:08:59;;;;;;;10.95;4.95;;;;;;;30.56;100.00;-18844.34;5001590;28;20039;-77
2023/08/19 10:11:29;;;;;;;9.50;4.85;;;;;;;30.55;100.00;-18844.19;4990695;28;20071;-77
2023/08/19 10:14:00;;;;;;;8.88;5.63;;;;;;;30.55;100.00;-18844.06;5006320;28;20079;-77
2023/08/19 10:16:27;;;;;;;9.95;4.90;;;;;;;30.67;100.00;-18847.16;4992701;28;20049;-77
2023/08/19 10:18:57;;;;;;;10.20;5.30;;;;;;;30.46;100.00;-18841.66;4994074;28;20509;-77
2023/08/19 10:21:24;;;;;;;10.85;4.93;;;;;;;30.42;100.00;-18840.56;4992372;28;20137;-77
2023/08/19 10:23:50;;;;;;;7.63;4.50;;;;;;;30.38;100.00;-18839.63;4994577;28;20046;-77
2023/08/19 10:26:17;;;;;;;10.65;4.97;;;;;;;30.35;100.00;-18838.97;4990640;28;20046;-77
2023/08/19 10:29:12;;;;;;;8.50;5.13;;;;;;;30.33;100.00;-18838.41;4995998;28;20645;-79
2023/08/19 10:31:37;;;;;;;11.48;5.80;;;;;;;30.24;100.00;-18836.00;5001700;28;20053;-79
2023/08/19 10:34:11;;;;;;;9.10;5.60;;;;;;;30.32;100.00;-18838.00;5004201;28;20039;-79
2023/08/19 10:36:37;;;;;;;9.77;5.43;;;;;;;30.47;100.00;-18841.91;4992003;28;20671;-77
2023/08/19 10:39:07;;;;;;;8.77;5.47;;;;;;;30.66;100.00;-18847.03;4984371;28;20758;-79
2023/08/19 10:41:40;;;;;;;9.45;5.90;;;;;;;30.54;100.00;-18843.94;4994359;28;20050;-77
2023/08/19 10:44:11;;;;;;;11.02;6.30;;;;;;;30.58;100.00;-18844.88;5002268;28;20125;-79
2023/08/19 10:46:47;;;;;;;9.45;6.93;;;;;;;30.54;100.00;-18843.81;5000388;28;20088;-77
2023/08/19 10:49:21;;;;;;;13.98;6.40;;;;;;;30.40;100.00;-18840.03;4996656;28;20065;-77
2023/08/19 10:52:06;;;;;;;10.18;6.00;;;;;;;30.44;100.00;-18841.25;5002791;28;20651;-77
2023/08/19 10:54:43;;;;;;;11.18;6.75;;;;;;;30.34;100.00;-18838.69;4979398;28;20087;-78
2023/08/19 10:57:22;;;;;;;7.93;6.35;;;;;;;30.30;100.00;-18837.63;4989612;28;20100;-77
2023/08/19 10:59:52;;;;;;;8.45;7.03;;;;;;;30.31;100.00;-18837.88;5010225;28;20493;-77
2023/08/19 11:02:18;;;;;;;9.38;7.20;;;;;;;30.30;100.00;-18837.63;5006039;28;20046;-77
2023/08/19 11:04:51;;;;;;;12.32;7.30;;;;;;;30.10;100.00;-18832.22;4989215;28;20040;-77
2023/08/19 11:07:18;;;;;;;10.93;7.47;;;;;;;30.23;100.00;-18835.59;4992331;28;20053;-78
2023/08/19 11:09:49;;;;;;;11.07;7.97;;;;;;;30.21;100.00;-18835.19;5000218;28;20053;-78